createdAt,value
2018-12-10T00:00:04.655Z,4.50
2018-12-10T00:01:05.040Z,4.50
2018-12-10T00:02:05.142Z,4.50
2018-12-10T00:03:04.319Z,4.50
2018-12-10T00:04:04.672Z,4.50
2018-12-10T00:05:04.869Z,4.40
2018-12-10T00:06:04.991Z,4.40
2018-12-10T00:07:10.066Z,4.40
2018-12-10T00:08:04.653Z,4.50
2018-12-10T00:09:04.497Z,4.50
2018-12-10T00:10:04.751Z,4.50
2018-12-10T00:11:04.237Z,4.40
2018-12-10T00:12:04.438Z,4.50
2018-12-10T00:13:04.957Z,4.40
2018-12-10T00:14:04.266Z,4.40
2018-12-10T00:15:04.473Z,4.40
2018-12-10T00:16:05.089Z,4.40
2018-12-10T00:17:04.612Z,4.40
2018-12-10T00:18:04.838Z,4.40
2018-12-10T00:19:04.827Z,4.40
2018-12-10T00:20:05.057Z,4.40
2018-12-10T00:21:05.122Z,4.40
2018-12-10T00:22:04.198Z,4.30
2018-12-10T00:23:04.844Z,4.30
2018-12-10T00:24:04.996Z,4.30
2018-12-10T00:25:04.287Z,4.30
2018-12-10T00:26:04.368Z,4.30
2018-12-10T00:27:04.555Z,4.30
2018-12-10T00:28:10.259Z,4.30
2018-12-10T00:29:04.745Z,4.30
2018-12-10T00:30:04.922Z,4.30
2018-12-10T00:31:04.949Z,4.30
2018-12-10T00:32:05.117Z,4.30
2018-12-10T00:33:04.193Z,4.30
2018-12-10T00:34:04.455Z,4.30
2018-12-10T00:35:04.969Z,4.30
2018-12-10T00:36:04.413Z,4.20
2018-12-10T00:37:04.632Z,4.20
2018-12-10T00:38:05.109Z,4.20
2018-12-10T00:39:04.321Z,4.20
2018-12-10T00:40:04.835Z,4.20
2018-12-10T00:41:04.438Z,4.10
2018-12-10T00:42:04.378Z,4.10
2018-12-10T00:43:04.618Z,4.10
2018-12-10T00:44:05.151Z,4.10
2018-12-10T00:45:04.742Z,4.10
2018-12-10T00:46:04.771Z,4.10
2018-12-10T00:47:04.830Z,4.00
2018-12-10T00:48:05.230Z,4.00
2018-12-10T00:49:04.304Z,4.00
2018-12-10T00:50:04.440Z,4.00
2018-12-10T00:51:04.920Z,4.00
2018-12-10T00:52:05.012Z,4.00
2018-12-10T00:53:04.440Z,4.00
2018-12-10T00:54:04.940Z,4.00
2018-12-10T00:55:04.403Z,4.00
2018-12-10T00:56:04.558Z,4.00
2018-12-10T00:57:04.709Z,4.00
2018-12-10T00:58:04.339Z,3.90
2018-12-10T00:59:04.456Z,4.00
2018-12-10T01:00:04.960Z,3.90
2018-12-10T01:01:05.055Z,3.90
2018-12-10T01:02:04.225Z,3.90
2018-12-10T01:03:04.827Z,3.90
2018-12-10T01:04:04.256Z,3.90
2018-12-10T01:05:04.383Z,3.90
2018-12-10T01:06:04.701Z,3.90
2018-12-10T01:07:04.782Z,3.90
2018-12-10T01:08:04.330Z,3.90
2018-12-10T01:09:04.677Z,3.90
2018-12-10T01:10:04.708Z,4.00
2018-12-10T01:11:04.794Z,4.00
2018-12-10T01:12:05.142Z,3.90
2018-12-10T01:13:04.291Z,4.00
2018-12-10T01:14:04.445Z,3.90
2018-12-10T01:15:04.583Z,3.90
2018-12-10T01:16:05.230Z,3.90
2018-12-10T01:17:04.287Z,3.90
2018-12-10T01:18:04.416Z,3.90
2018-12-10T01:19:05.290Z,3.90
2018-12-10T01:20:04.270Z,3.90
2018-12-10T01:21:04.841Z,3.90
2018-12-10T01:22:04.894Z,3.90
2018-12-10T01:23:05.083Z,3.90
2018-12-10T01:24:04.312Z,3.90
2018-12-10T01:25:04.543Z,3.80
2018-12-10T01:26:05.173Z,3.80
2018-12-10T01:27:04.296Z,3.80
2018-12-10T01:28:09.904Z,3.80
2018-12-10T01:29:04.285Z,3.80
2018-12-10T01:30:04.994Z,3.80
2018-12-10T01:31:05.109Z,3.80
2018-12-10T01:32:04.320Z,3.80
2018-12-10T01:33:04.334Z,3.70
2018-12-10T01:34:04.477Z,3.70
2018-12-10T01:35:04.604Z,3.70
2018-12-10T01:36:04.336Z,3.70
2018-12-10T01:37:04.353Z,3.70
2018-12-10T01:38:04.654Z,3.70
2018-12-10T01:39:04.860Z,3.70
2018-12-10T01:40:05.006Z,3.70
2018-12-10T01:41:04.378Z,3.60
2018-12-10T01:42:04.498Z,3.60
2018-12-10T01:43:04.887Z,3.60
2018-12-10T01:44:05.118Z,3.60
2018-12-10T01:45:05.141Z,3.60
2018-12-10T01:46:04.242Z,3.60
2018-12-10T01:47:04.414Z,3.60
2018-12-10T01:48:04.750Z,3.60
2018-12-10T01:49:04.413Z,3.60
2018-12-10T01:50:04.642Z,3.50
2018-12-10T01:51:05.212Z,3.50
2018-12-10T01:52:04.182Z,3.50
2018-12-10T01:53:04.245Z,3.50
2018-12-10T01:54:04.373Z,3.50
2018-12-10T01:55:04.437Z,3.50
2018-12-10T01:56:04.700Z,3.50
2018-12-10T01:57:04.826Z,3.50
2018-12-10T01:58:05.051Z,3.50
2018-12-10T01:59:05.198Z,3.50
2018-12-10T02:00:05.256Z,3.50
2018-12-10T02:01:04.238Z,3.50
2018-12-10T02:02:04.361Z,3.50
2018-12-10T02:03:04.408Z,3.50
2018-12-10T02:04:04.560Z,3.50
2018-12-10T02:05:04.908Z,3.50
2018-12-10T02:06:05.140Z,3.50
2018-12-10T02:07:09.812Z,3.50
2018-12-10T02:08:04.285Z,3.50
2018-12-10T02:09:04.280Z,3.50
2018-12-10T02:10:04.530Z,3.50
2018-12-10T02:11:04.669Z,3.50
2018-12-10T02:12:04.815Z,3.50
2018-12-10T02:13:04.348Z,3.50
2018-12-10T02:14:04.573Z,3.50
2018-12-10T02:15:04.512Z,3.50
2018-12-10T02:16:04.508Z,3.50
2018-12-10T02:17:05.088Z,3.50
2018-12-10T02:18:04.400Z,3.50
2018-12-10T02:19:04.269Z,3.50
2018-12-10T02:20:04.331Z,3.50
2018-12-10T02:21:04.492Z,3.50
2018-12-10T02:22:05.039Z,3.50
2018-12-10T02:23:04.413Z,3.50
2018-12-10T02:24:04.502Z,3.50
2018-12-10T02:25:04.929Z,3.50
2018-12-10T02:26:04.731Z,3.40
2018-12-10T02:27:05.141Z,3.50
2018-12-10T02:28:10.179Z,3.40
2018-12-10T02:29:04.605Z,3.40
2018-12-10T02:30:04.797Z,3.40
2018-12-10T02:31:04.401Z,3.50
2018-12-10T02:32:04.991Z,3.40
2018-12-10T02:33:04.999Z,3.40
2018-12-10T02:34:04.230Z,3.40
2018-12-10T02:35:04.661Z,3.50
2018-12-10T02:36:05.011Z,3.40
2018-12-10T02:37:04.214Z,3.40
2018-12-10T02:38:04.834Z,3.40
2018-12-10T02:39:05.054Z,3.50
2018-12-10T02:40:05.118Z,3.40
2018-12-10T02:41:04.919Z,3.40
2018-12-10T02:42:04.270Z,3.50
2018-12-10T02:43:04.565Z,3.50
2018-12-10T02:44:04.700Z,3.50
2018-12-10T02:45:05.109Z,3.50
2018-12-10T02:46:04.910Z,3.50
2018-12-10T02:47:04.214Z,3.50
2018-12-10T02:48:04.293Z,3.50
2018-12-10T02:49:04.936Z,3.50
2018-12-10T02:50:04.527Z,3.50
2018-12-10T02:51:04.575Z,3.40
2018-12-10T02:52:04.580Z,3.50
2018-12-10T02:53:04.745Z,3.50
2018-12-10T02:54:04.836Z,3.50
2018-12-10T02:55:04.914Z,3.50
2018-12-10T02:56:05.065Z,3.50
2018-12-10T02:57:05.145Z,3.50
2018-12-10T02:58:05.269Z,3.50
2018-12-10T02:59:04.667Z,3.50
2018-12-10T03:00:04.742Z,3.50
2018-12-10T03:01:04.977Z,3.50
2018-12-10T03:02:04.623Z,3.50
2018-12-10T03:03:05.184Z,3.50
2018-12-10T03:04:04.473Z,3.50
2018-12-10T03:05:04.545Z,3.50
2018-12-10T03:06:04.477Z,3.50
2018-12-10T03:07:04.607Z,3.50
2018-12-10T03:08:04.237Z,3.50
2018-12-10T03:09:04.506Z,3.50
2018-12-10T03:10:04.553Z,3.50
2018-12-10T03:11:04.857Z,3.50
2018-12-10T03:12:04.883Z,3.50
2018-12-10T03:13:04.571Z,3.50
2018-12-10T03:14:04.649Z,3.50
2018-12-10T03:15:05.117Z,3.50
2018-12-10T03:16:04.372Z,3.50
2018-12-10T03:17:04.594Z,3.50
2018-12-10T03:18:04.632Z,3.50
2018-12-10T03:19:05.187Z,3.50
2018-12-10T03:20:05.097Z,3.50
2018-12-10T03:21:04.274Z,3.50
2018-12-10T03:22:05.054Z,3.50
2018-12-10T03:23:04.395Z,3.50
2018-12-10T03:24:04.497Z,3.50
2018-12-10T03:25:04.594Z,3.50
2018-12-10T03:26:05.281Z,3.50
2018-12-10T03:27:04.741Z,3.50
2018-12-10T03:28:10.120Z,3.50
2018-12-10T03:29:04.599Z,3.50
2018-12-10T03:30:04.783Z,3.50
2018-12-10T03:31:04.978Z,3.50
2018-12-10T03:32:05.209Z,3.50
2018-12-10T03:33:04.171Z,3.50
2018-12-10T03:34:04.309Z,3.50
2018-12-10T03:35:04.389Z,3.50
2018-12-10T03:36:04.550Z,3.50
2018-12-10T03:37:04.941Z,3.50
2018-12-10T03:38:05.086Z,3.50
2018-12-10T03:39:04.728Z,3.50
2018-12-10T03:40:04.620Z,3.50
2018-12-10T03:41:04.751Z,3.50
2018-12-10T03:42:04.836Z,3.50
2018-12-10T03:43:04.996Z,3.50
2018-12-10T03:44:04.588Z,3.50
2018-12-10T03:45:04.741Z,3.50
2018-12-10T03:46:04.784Z,3.50
2018-12-10T03:47:04.197Z,3.50
2018-12-10T03:48:04.690Z,3.50
2018-12-10T03:49:09.911Z,3.50
2018-12-10T03:50:04.324Z,3.50
2018-12-10T03:51:04.591Z,3.50
2018-12-10T03:52:05.042Z,3.50
2018-12-10T03:53:04.475Z,3.50
2018-12-10T03:54:04.897Z,3.50
2018-12-10T03:55:04.847Z,3.50
2018-12-10T03:56:04.243Z,3.50
2018-12-10T03:57:04.318Z,3.50
2018-12-10T03:58:04.364Z,3.50
2018-12-10T03:59:04.574Z,3.50
2018-12-10T04:00:04.627Z,3.50
2018-12-10T04:01:04.729Z,3.50
2018-12-10T04:02:04.272Z,3.50
2018-12-10T04:03:04.366Z,3.50
2018-12-10T04:04:04.281Z,3.50
2018-12-10T04:05:04.536Z,3.50
2018-12-10T04:06:04.695Z,3.50
2018-12-10T04:07:04.703Z,3.50
2018-12-10T04:08:04.948Z,3.50
2018-12-10T04:09:04.685Z,3.50
2018-12-10T04:10:04.980Z,3.50
2018-12-10T04:11:04.322Z,3.50
2018-12-10T04:12:04.945Z,3.60
2018-12-10T04:13:04.985Z,3.50
2018-12-10T04:14:05.073Z,3.50
2018-12-10T04:15:04.304Z,3.60
2018-12-10T04:16:04.392Z,3.60
2018-12-10T04:17:05.057Z,3.60
2018-12-10T04:18:04.372Z,3.60
2018-12-10T04:19:04.559Z,3.60
2018-12-10T04:20:04.541Z,3.60
2018-12-10T04:21:04.267Z,3.60
2018-12-10T04:22:04.614Z,3.60
2018-12-10T04:23:04.874Z,3.60
2018-12-10T04:24:04.884Z,3.60
2018-12-10T04:25:04.998Z,3.60
2018-12-10T04:26:05.036Z,3.60
2018-12-10T04:27:05.209Z,3.60
2018-12-10T04:28:09.421Z,3.60
2018-12-10T04:29:04.844Z,3.60
2018-12-10T04:30:04.608Z,3.60
2018-12-10T04:31:04.572Z,3.60
2018-12-10T04:32:04.692Z,3.60
2018-12-10T04:33:04.955Z,3.60
2018-12-10T04:34:04.568Z,3.60
2018-12-10T04:35:04.752Z,3.60
2018-12-10T04:36:04.820Z,3.60
2018-12-10T04:37:05.028Z,3.60
2018-12-10T04:38:05.131Z,3.60
2018-12-10T04:39:04.510Z,3.60
2018-12-10T04:40:04.747Z,3.60
2018-12-10T04:41:04.232Z,3.60
2018-12-10T04:42:04.327Z,3.60
2018-12-10T04:43:04.505Z,3.60
2018-12-10T04:44:04.462Z,3.60
2018-12-10T04:45:04.733Z,3.60
2018-12-10T04:46:05.184Z,3.60
2018-12-10T04:47:04.217Z,3.60
2018-12-10T04:48:04.934Z,3.60
2018-12-10T04:49:04.930Z,3.60
2018-12-10T04:50:05.190Z,3.60
2018-12-10T04:51:04.566Z,3.60
2018-12-10T04:52:04.905Z,3.60
2018-12-10T04:53:05.077Z,3.60
2018-12-10T04:54:04.564Z,3.60
2018-12-10T04:55:04.599Z,3.60
2018-12-10T04:56:04.953Z,3.60
2018-12-10T04:57:04.297Z,3.60
2018-12-10T04:58:04.626Z,3.60
2018-12-10T04:59:04.655Z,3.60
2018-12-10T05:00:04.958Z,3.60
2018-12-10T05:01:05.018Z,3.60
2018-12-10T05:02:05.048Z,3.60
2018-12-10T05:03:04.443Z,3.60
2018-12-10T05:04:04.749Z,3.60
2018-12-10T05:05:04.886Z,3.60
2018-12-10T05:06:05.070Z,3.60
2018-12-10T05:07:04.635Z,3.60
2018-12-10T05:08:05.480Z,3.60
2018-12-10T05:09:04.271Z,3.60
2018-12-10T05:10:04.416Z,3.60
2018-12-10T05:11:04.504Z,3.60
2018-12-10T05:12:04.264Z,3.60
2018-12-10T05:13:04.285Z,3.60
2018-12-10T05:14:04.334Z,3.60
2018-12-10T05:15:04.457Z,3.60
2018-12-10T05:16:04.666Z,3.60
2018-12-10T05:17:04.842Z,3.60
2018-12-10T05:18:04.624Z,3.60
2018-12-10T05:19:04.603Z,3.60
2018-12-10T05:20:04.655Z,3.60
2018-12-10T05:21:05.159Z,3.60
2018-12-10T05:22:04.380Z,3.60
2018-12-10T05:23:04.800Z,3.60
2018-12-10T05:24:04.899Z,3.60
2018-12-10T05:25:04.681Z,3.60
2018-12-10T05:26:04.213Z,3.60
2018-12-10T05:27:04.541Z,3.60
2018-12-10T05:28:09.730Z,3.60
2018-12-10T05:29:04.481Z,3.60
2018-12-10T05:30:04.379Z,3.60
2018-12-10T05:31:04.877Z,3.60
2018-12-10T05:32:04.908Z,3.60
2018-12-10T05:33:04.494Z,3.60
2018-12-10T05:34:04.464Z,3.60
2018-12-10T05:35:05.139Z,3.60
2018-12-10T05:36:05.112Z,3.60
2018-12-10T05:37:04.478Z,3.60
2018-12-10T05:38:05.000Z,3.60
2018-12-10T05:39:04.400Z,3.60
2018-12-10T05:40:04.805Z,3.60
2018-12-10T05:41:05.126Z,3.60
2018-12-10T05:42:04.591Z,3.60
2018-12-10T05:43:04.785Z,3.60
2018-12-10T05:44:04.838Z,3.60
2018-12-10T05:45:05.291Z,3.60
2018-12-10T05:46:04.700Z,3.60
2018-12-10T05:47:05.017Z,3.60
2018-12-10T05:48:09.998Z,3.60
2018-12-10T05:49:04.366Z,3.60
2018-12-10T05:50:04.500Z,3.60
2018-12-10T05:51:05.253Z,3.60
2018-12-10T05:52:04.580Z,3.60
2018-12-10T05:53:04.412Z,3.60
2018-12-10T05:54:04.344Z,3.60
2018-12-10T05:55:04.537Z,3.60
2018-12-10T05:56:04.900Z,3.60
2018-12-10T05:57:05.231Z,3.60
2018-12-10T05:58:04.287Z,3.60
2018-12-10T05:59:04.328Z,3.60
2018-12-10T06:00:04.383Z,3.60
2018-12-10T06:01:04.420Z,3.60
2018-12-10T06:02:04.476Z,3.60
2018-12-10T06:03:04.704Z,3.60
2018-12-10T06:04:04.894Z,3.60
2018-12-10T06:05:05.525Z,3.60
2018-12-10T06:06:04.200Z,3.60
2018-12-10T06:07:04.236Z,3.60
2018-12-10T06:08:04.352Z,3.60
2018-12-10T06:09:04.986Z,3.60
2018-12-10T06:10:05.035Z,3.60
2018-12-10T06:11:04.214Z,3.60
2018-12-10T06:12:04.255Z,3.60
2018-12-10T06:13:04.546Z,3.60
2018-12-10T06:14:04.605Z,3.60
2018-12-10T06:15:05.030Z,3.60
2018-12-10T06:16:04.472Z,3.60
2018-12-10T06:17:04.541Z,3.60
2018-12-10T06:18:04.597Z,3.60
2018-12-10T06:19:04.756Z,3.60
2018-12-10T06:20:05.243Z,3.60
2018-12-10T06:21:05.450Z,3.60
2018-12-10T06:22:04.465Z,3.60
2018-12-10T06:23:04.677Z,3.50
2018-12-10T06:24:04.367Z,3.60
2018-12-10T06:25:04.375Z,3.60
2018-12-10T06:26:04.643Z,3.50
2018-12-10T06:27:04.720Z,3.60
2018-12-10T06:28:04.699Z,3.50
2018-12-10T06:29:04.214Z,3.60
2018-12-10T06:30:04.898Z,3.50
2018-12-10T06:31:04.861Z,3.60
2018-12-10T06:32:04.834Z,3.60
2018-12-10T06:33:05.097Z,3.60
2018-12-10T06:34:04.572Z,3.60
2018-12-10T06:35:05.000Z,3.60
2018-12-10T06:36:04.942Z,3.50
2018-12-10T06:37:05.228Z,3.60
2018-12-10T06:38:05.039Z,3.60
2018-12-10T06:39:05.144Z,3.60
2018-12-10T06:40:09.293Z,3.60
2018-12-10T06:41:04.797Z,3.50
2018-12-10T06:42:04.883Z,3.60
2018-12-10T06:43:04.162Z,3.60
2018-12-10T06:44:04.397Z,3.60
2018-12-10T06:45:04.712Z,3.50
2018-12-10T06:46:04.301Z,3.50
2018-12-10T06:47:04.760Z,3.50
2018-12-10T06:48:05.064Z,3.50
2018-12-10T06:49:04.700Z,3.50
2018-12-10T06:50:04.809Z,3.50
2018-12-10T06:51:04.928Z,3.50
2018-12-10T06:52:05.031Z,3.60
2018-12-10T06:53:05.100Z,3.60
2018-12-10T06:54:05.185Z,3.60
2018-12-10T06:55:04.743Z,3.50
2018-12-10T06:56:04.995Z,3.50
2018-12-10T06:57:04.966Z,3.60
2018-12-10T06:58:04.957Z,3.50
2018-12-10T06:59:04.621Z,3.60
2018-12-10T07:00:09.817Z,3.60
2018-12-10T07:01:04.299Z,3.60
2018-12-10T07:02:04.614Z,3.50
2018-12-10T07:03:04.630Z,3.50
2018-12-10T07:04:04.919Z,3.50
2018-12-10T07:05:05.076Z,3.50
2018-12-10T07:06:04.520Z,3.60
2018-12-10T07:07:04.978Z,3.50
2018-12-10T07:08:04.819Z,3.50
2018-12-10T07:09:05.001Z,3.60
2018-12-10T07:10:04.290Z,3.50
2018-12-10T07:11:04.510Z,3.50
2018-12-10T07:12:04.242Z,3.50
2018-12-10T07:13:04.365Z,3.60
2018-12-10T07:14:04.451Z,3.50
2018-12-10T07:15:04.554Z,3.50
2018-12-10T07:16:04.751Z,3.50
2018-12-10T07:17:04.895Z,3.50
2018-12-10T07:18:04.996Z,3.50
2018-12-10T07:19:05.165Z,3.50
2018-12-10T07:20:04.255Z,3.50
2018-12-10T07:21:04.752Z,3.50
2018-12-10T07:22:06.662Z,3.50
2018-12-10T07:23:04.558Z,3.50
2018-12-10T07:24:04.602Z,3.40
2018-12-10T07:25:04.660Z,3.40
2018-12-10T07:26:04.777Z,3.40
2018-12-10T07:27:05.125Z,3.40
2018-12-10T07:28:05.201Z,3.40
2018-12-10T07:29:04.293Z,3.40
2018-12-10T07:30:04.207Z,3.40
2018-12-10T07:31:04.652Z,3.40
2018-12-10T07:32:04.941Z,3.40
2018-12-10T07:33:05.136Z,3.40
2018-12-10T07:34:04.298Z,3.40
2018-12-10T07:35:04.465Z,3.40
2018-12-10T07:36:04.866Z,3.40
2018-12-10T07:37:04.342Z,3.40
2018-12-10T07:38:05.024Z,3.40
2018-12-10T07:39:04.652Z,3.40
2018-12-10T07:40:06.599Z,3.40
2018-12-10T07:41:04.442Z,3.40
2018-12-10T07:42:04.677Z,3.40
2018-12-10T07:43:04.815Z,3.40
2018-12-10T07:44:05.057Z,3.40
2018-12-10T07:45:04.289Z,3.40
2018-12-10T07:46:04.620Z,3.40
2018-12-10T07:47:04.796Z,3.40
2018-12-10T07:48:09.377Z,3.40
2018-12-10T07:49:04.959Z,3.40
2018-12-10T07:50:05.017Z,3.40
2018-12-10T07:51:04.290Z,3.40
2018-12-10T07:52:04.658Z,3.40
2018-12-10T07:53:05.209Z,3.40
2018-12-10T07:54:04.552Z,3.40
2018-12-10T07:55:04.698Z,3.40
2018-12-10T07:56:05.046Z,3.40
2018-12-10T07:57:05.190Z,3.40
2018-12-10T07:58:04.806Z,3.40
2018-12-10T07:59:04.315Z,3.40
2018-12-10T08:00:04.329Z,3.40
2018-12-10T08:01:04.515Z,3.40
2018-12-10T08:02:04.768Z,3.40
2018-12-10T08:03:04.740Z,3.40
2018-12-10T08:04:04.900Z,3.40
2018-12-10T08:05:12.097Z,3.40
2018-12-10T08:06:05.143Z,3.40
2018-12-10T08:07:04.438Z,3.40
2018-12-10T08:08:05.025Z,3.40
2018-12-10T08:09:04.507Z,3.40
2018-12-10T08:10:04.740Z,3.40
2018-12-10T08:11:04.439Z,3.40
2018-12-10T08:12:04.375Z,3.40
2018-12-10T08:13:04.596Z,3.40
2018-12-10T08:14:04.805Z,3.40
2018-12-10T08:15:05.190Z,3.40
2018-12-10T08:16:04.456Z,3.40
2018-12-10T08:17:04.920Z,3.40
2018-12-10T08:18:05.058Z,3.40
2018-12-10T08:19:04.997Z,3.40
2018-12-10T08:20:05.087Z,3.40
2018-12-10T08:21:04.694Z,3.40
2018-12-10T08:22:05.050Z,3.40
2018-12-10T08:23:04.542Z,3.40
2018-12-10T08:24:04.566Z,3.40
2018-12-10T08:25:04.377Z,3.40
2018-12-10T08:26:05.065Z,3.40
2018-12-10T08:27:09.372Z,3.40
2018-12-10T08:28:10.062Z,3.40
2018-12-10T08:29:07.372Z,3.50
2018-12-10T08:30:05.093Z,3.50
2018-12-10T08:31:04.442Z,3.50
2018-12-10T08:32:04.808Z,3.50
2018-12-10T08:33:04.474Z,3.50
2018-12-10T08:34:04.808Z,3.50
2018-12-10T08:35:05.177Z,3.50
2018-12-10T08:36:04.308Z,3.50
2018-12-10T08:37:04.366Z,3.50
2018-12-10T08:38:04.387Z,3.50
2018-12-10T08:39:04.981Z,3.50
2018-12-10T08:40:04.612Z,3.50
2018-12-10T08:41:04.712Z,3.50
2018-12-10T08:42:04.170Z,3.50
2018-12-10T08:43:04.462Z,3.50
2018-12-10T08:44:04.543Z,3.50
2018-12-10T08:45:04.338Z,3.50
2018-12-10T08:46:04.431Z,3.50
2018-12-10T08:47:04.478Z,3.50
2018-12-10T08:48:04.577Z,3.50
2018-12-10T08:49:04.580Z,3.50
2018-12-10T08:50:04.295Z,3.50
2018-12-10T08:51:04.489Z,3.50
2018-12-10T08:52:04.645Z,3.50
2018-12-10T08:53:04.717Z,3.50
2018-12-10T08:54:05.047Z,3.50
2018-12-10T08:55:04.262Z,3.50
2018-12-10T08:56:04.925Z,3.60
2018-12-10T08:57:04.967Z,3.60
2018-12-10T08:58:04.266Z,3.60
2018-12-10T08:59:04.304Z,3.60
2018-12-10T09:00:04.369Z,3.60
2018-12-10T09:01:04.436Z,3.60
2018-12-10T09:02:04.520Z,3.60
2018-12-10T09:03:04.956Z,3.60
2018-12-10T09:04:04.399Z,3.60
2018-12-10T09:05:04.479Z,3.60
2018-12-10T09:06:04.496Z,3.60
2018-12-10T09:07:04.691Z,3.60
2018-12-10T09:08:05.079Z,3.60
2018-12-10T09:09:04.515Z,3.60
2018-12-10T09:10:04.924Z,3.60
2018-12-10T09:11:05.092Z,3.60
2018-12-10T09:12:05.077Z,3.60
2018-12-10T09:13:04.869Z,3.60
2018-12-10T09:14:04.612Z,3.60
2018-12-10T09:15:04.785Z,3.60
2018-12-10T09:16:04.893Z,3.60
2018-12-10T09:17:05.076Z,3.60
2018-12-10T09:18:05.146Z,3.60
2018-12-10T09:19:04.309Z,3.60
2018-12-10T09:20:04.350Z,3.60
2018-12-10T09:21:04.417Z,3.60
2018-12-10T09:22:05.135Z,3.60
2018-12-10T09:23:04.473Z,3.60
2018-12-10T09:24:04.586Z,3.60
2018-12-10T09:25:04.931Z,3.60
2018-12-10T09:26:05.135Z,3.60
2018-12-10T09:27:04.352Z,3.60
2018-12-10T09:28:09.508Z,3.60
2018-12-10T09:29:04.941Z,3.60
2018-12-10T09:30:04.382Z,3.60
2018-12-10T09:31:04.423Z,3.70
2018-12-10T09:32:04.738Z,3.70
2018-12-10T09:33:04.729Z,3.70
2018-12-10T09:34:04.533Z,3.70
2018-12-10T09:35:04.920Z,3.70
2018-12-10T09:36:05.108Z,3.70
2018-12-10T09:37:04.291Z,3.70
2018-12-10T09:38:04.801Z,3.70
2018-12-10T09:39:04.404Z,3.70
2018-12-10T09:40:05.064Z,3.80
2018-12-10T09:41:04.516Z,3.80
2018-12-10T09:42:04.645Z,3.80
2018-12-10T09:43:04.826Z,3.80
2018-12-10T09:44:04.541Z,3.80
2018-12-10T09:45:05.108Z,3.80
2018-12-10T09:46:05.065Z,3.80
2018-12-10T09:47:04.889Z,3.80
2018-12-10T09:48:09.392Z,3.80
2018-12-10T09:49:04.401Z,3.80
2018-12-10T09:50:04.740Z,3.80
2018-12-10T09:51:05.102Z,3.80
2018-12-10T09:52:04.675Z,3.80
2018-12-10T09:53:04.265Z,3.80
2018-12-10T09:54:04.313Z,3.80
2018-12-10T09:55:04.669Z,3.80
2018-12-10T09:56:04.965Z,3.80
2018-12-10T09:57:04.891Z,3.80
2018-12-10T09:58:04.657Z,3.80
2018-12-10T09:59:04.226Z,3.80
2018-12-10T10:00:04.420Z,3.80
2018-12-10T10:01:04.475Z,3.80
2018-12-10T10:02:11.833Z,3.80
2018-12-10T10:03:05.021Z,3.80
2018-12-10T10:04:04.596Z,3.80
2018-12-10T10:05:04.608Z,3.80
2018-12-10T10:06:05.013Z,3.90
2018-12-10T10:07:05.036Z,3.80
2018-12-10T10:08:04.652Z,3.80
2018-12-10T10:09:04.640Z,3.90
2018-12-10T10:10:04.823Z,3.90
2018-12-10T10:11:05.210Z,3.90
2018-12-10T10:12:04.594Z,3.90
2018-12-10T10:13:04.806Z,3.90
2018-12-10T10:14:04.873Z,3.90
2018-12-10T10:15:05.017Z,3.90
2018-12-10T10:16:05.088Z,3.90
2018-12-10T10:17:04.772Z,4.00
2018-12-10T10:18:04.965Z,4.00
2018-12-10T10:19:04.994Z,4.00
2018-12-10T10:20:04.213Z,4.00
2018-12-10T10:21:04.650Z,4.00
2018-12-10T10:22:05.167Z,4.00
2018-12-10T10:23:04.837Z,4.00
2018-12-10T10:24:04.761Z,4.00
2018-12-10T10:25:05.090Z,4.00
2018-12-10T10:26:04.237Z,4.00
2018-12-10T10:27:04.932Z,4.00
2018-12-10T10:28:10.010Z,4.00
2018-12-10T10:29:04.520Z,4.00
2018-12-10T10:30:04.701Z,4.00
2018-12-10T10:31:04.862Z,4.00
2018-12-10T10:32:04.445Z,4.00
2018-12-10T10:33:04.921Z,4.00
2018-12-10T10:34:04.327Z,4.00
2018-12-10T10:35:04.409Z,4.00
2018-12-10T10:36:04.624Z,4.00
2018-12-10T10:37:04.894Z,4.00
2018-12-10T10:38:04.895Z,4.00
2018-12-10T10:39:05.096Z,4.00
2018-12-10T10:40:04.639Z,4.00
2018-12-10T10:41:04.729Z,4.00
2018-12-10T10:42:04.872Z,4.00
2018-12-10T10:43:05.064Z,4.00
2018-12-10T10:44:05.147Z,4.00
2018-12-10T10:45:04.281Z,4.00
2018-12-10T10:46:04.640Z,4.00
2018-12-10T10:47:05.006Z,4.00
2018-12-10T10:48:04.253Z,4.00
2018-12-10T10:49:04.343Z,4.00
2018-12-10T10:50:04.516Z,4.10
2018-12-10T10:51:04.580Z,4.00
2018-12-10T10:52:04.860Z,4.00
2018-12-10T10:53:05.191Z,4.10
2018-12-10T10:54:04.279Z,4.10
2018-12-10T10:55:04.615Z,4.10
2018-12-10T10:56:04.706Z,4.00
2018-12-10T10:57:04.389Z,4.10
2018-12-10T10:58:04.536Z,4.10
2018-12-10T10:59:04.910Z,4.10
2018-12-10T11:00:05.076Z,4.10
2018-12-10T11:01:04.198Z,4.10
2018-12-10T11:02:04.287Z,4.10
2018-12-10T11:03:04.521Z,4.10
2018-12-10T11:04:04.859Z,4.10
2018-12-10T11:05:05.106Z,4.10
2018-12-10T11:06:04.336Z,4.10
2018-12-10T11:07:04.445Z,4.10
2018-12-10T11:08:04.642Z,4.10
2018-12-10T11:09:05.125Z,4.10
2018-12-10T11:10:04.351Z,4.10
2018-12-10T11:11:04.413Z,4.10
2018-12-10T11:12:05.154Z,4.20
2018-12-10T11:13:05.197Z,4.10
2018-12-10T11:14:04.629Z,4.10
2018-12-10T11:15:04.915Z,4.20
2018-12-10T11:16:04.937Z,4.20
2018-12-10T11:17:05.149Z,4.20
2018-12-10T11:18:04.285Z,4.20
2018-12-10T11:19:04.339Z,4.20
2018-12-10T11:20:04.319Z,4.20
2018-12-10T11:21:04.537Z,4.20
2018-12-10T11:22:04.739Z,4.20
2018-12-10T11:23:04.816Z,4.20
2018-12-10T11:24:04.540Z,4.30
2018-12-10T11:25:05.018Z,4.20
2018-12-10T11:26:04.485Z,4.30
2018-12-10T11:27:05.062Z,4.30
2018-12-10T11:28:09.930Z,4.20
2018-12-10T11:29:04.516Z,4.30
2018-12-10T11:30:05.016Z,4.30
2018-12-10T11:31:05.045Z,4.30
2018-12-10T11:32:04.260Z,4.30
2018-12-10T11:33:04.647Z,4.30
2018-12-10T11:34:04.975Z,4.30
2018-12-10T11:35:04.269Z,4.30
2018-12-10T11:36:04.697Z,4.30
2018-12-10T11:37:05.126Z,4.30
2018-12-10T11:38:04.528Z,4.30
2018-12-10T11:39:04.674Z,4.30
2018-12-10T11:40:04.895Z,4.30
2018-12-10T11:41:05.003Z,4.30
2018-12-10T11:42:04.648Z,4.40
2018-12-10T11:43:05.007Z,4.40
2018-12-10T11:44:04.847Z,4.40
2018-12-10T11:45:05.103Z,4.40
2018-12-10T11:46:04.864Z,4.40
2018-12-10T11:47:04.231Z,4.40
2018-12-10T11:48:04.768Z,4.40
2018-12-10T11:49:04.415Z,4.40
2018-12-10T11:50:04.628Z,4.40
2018-12-10T11:51:04.167Z,4.50
2018-12-10T11:52:04.527Z,4.50
2018-12-10T11:53:04.818Z,4.50
2018-12-10T11:54:04.522Z,4.50
2018-12-10T11:55:04.838Z,4.50
2018-12-10T11:56:05.026Z,4.50
2018-12-10T11:57:04.673Z,4.50
2018-12-10T11:58:04.756Z,4.50
2018-12-10T11:59:04.746Z,4.50
2018-12-10T12:00:05.030Z,4.50
2018-12-10T12:01:04.462Z,4.50
2018-12-10T12:02:04.686Z,4.50
2018-12-10T12:03:04.877Z,4.40
2018-12-10T12:04:09.289Z,4.40
2018-12-10T12:05:04.810Z,4.40
2018-12-10T12:06:05.155Z,4.40
2018-12-10T12:07:04.460Z,4.40
2018-12-10T12:08:04.610Z,4.40
2018-12-10T12:09:05.029Z,4.40
2018-12-10T12:10:05.138Z,4.40
2018-12-10T12:11:04.261Z,4.40
2018-12-10T12:12:04.968Z,4.40
2018-12-10T12:13:05.067Z,4.40
2018-12-10T12:14:05.182Z,4.50
2018-12-10T12:15:04.725Z,4.50
2018-12-10T12:16:04.533Z,4.50
2018-12-10T12:17:04.690Z,4.50
2018-12-10T12:18:04.556Z,4.50
2018-12-10T12:19:11.191Z,4.50
2018-12-10T12:20:05.159Z,4.50
2018-12-10T12:21:04.312Z,4.50
2018-12-10T12:22:05.026Z,4.50
2018-12-10T12:23:05.040Z,4.50
2018-12-10T12:24:04.565Z,4.50
2018-12-10T12:25:04.500Z,4.50
2018-12-10T12:26:04.856Z,4.50
2018-12-10T12:27:05.092Z,4.50
2018-12-10T12:28:04.356Z,4.50
2018-12-10T12:29:04.837Z,4.50
2018-12-10T12:30:04.258Z,4.50
2018-12-10T12:31:04.529Z,4.40
2018-12-10T12:32:04.883Z,4.40
2018-12-10T12:33:05.144Z,4.40
2018-12-10T12:34:04.796Z,4.40
2018-12-10T12:35:04.818Z,4.40
2018-12-10T12:36:05.061Z,4.40
2018-12-10T12:37:04.418Z,4.40
2018-12-10T12:38:09.932Z,4.40
2018-12-10T12:39:04.507Z,4.40
2018-12-10T12:40:04.970Z,4.40
2018-12-10T12:41:04.442Z,4.40
2018-12-10T12:42:04.614Z,4.40
2018-12-10T12:43:07.004Z,4.40
2018-12-10T12:44:04.713Z,4.40
2018-12-10T12:45:04.323Z,4.40
2018-12-10T12:46:04.387Z,4.40
2018-12-10T12:47:04.495Z,4.40
2018-12-10T12:48:04.690Z,4.40
2018-12-10T12:49:04.948Z,4.40
2018-12-10T12:50:05.023Z,4.40
2018-12-10T12:51:04.777Z,4.40
2018-12-10T12:52:05.120Z,4.40
2018-12-10T12:53:04.199Z,4.40
2018-12-10T12:54:04.434Z,4.40
2018-12-10T12:55:04.685Z,4.50
2018-12-10T12:56:05.196Z,4.50
2018-12-10T12:57:04.549Z,4.40
2018-12-10T12:58:04.679Z,4.40
2018-12-10T12:59:05.140Z,4.50
2018-12-10T13:00:04.307Z,4.40
2018-12-10T13:01:04.546Z,4.40
2018-12-10T13:02:04.844Z,4.40
2018-12-10T13:03:05.251Z,4.40
2018-12-10T13:04:04.811Z,4.40
2018-12-10T13:05:05.172Z,4.40
2018-12-10T13:06:06.851Z,4.40
2018-12-10T13:07:04.725Z,4.40
2018-12-10T13:08:04.323Z,4.40
2018-12-10T13:09:04.498Z,4.40
2018-12-10T13:10:05.121Z,4.40
2018-12-10T13:11:04.248Z,4.40
2018-12-10T13:12:04.451Z,4.40
2018-12-10T13:13:04.802Z,4.40
2018-12-10T13:14:05.311Z,4.40
2018-12-10T13:15:04.707Z,4.40
2018-12-10T13:16:05.123Z,4.40
2018-12-10T13:17:04.319Z,4.40
2018-12-10T13:18:04.724Z,4.40